createdAt,value
2019-05-11T00:00:23.670Z,98771.36
2019-05-11T00:02:55.284Z,98760.78
2019-05-11T00:05:28.511Z,98763.98
2019-05-11T00:08:00.024Z,98759.92
2019-05-11T00:10:31.399Z,98761.03
2019-05-11T00:13:03.146Z,98754.89
2019-05-11T00:15:36.475Z,98755.75
2019-05-11T00:18:08.445Z,98754.52
2019-05-11T00:20:40.310Z,98759.80
2019-05-11T00:23:13.914Z,98761.97
2019-05-11T00:25:45.413Z,98750.58
2019-05-11T00:28:17.531Z,98757.33
2019-05-11T00:30:51.275Z,98750.20
2019-05-11T00:33:24.901Z,98755.92
2019-05-11T00:35:56.388Z,98753.45
2019-05-11T00:38:27.852Z,98765.69
2019-05-11T00:40:59.977Z,98766.09
2019-05-11T00:43:33.780Z,98772.97
2019-05-11T00:46:05.348Z,98776.91
2019-05-11T00:48:37.101Z,98777.98
2019-05-11T00:51:10.338Z,98769.09
2019-05-11T00:53:41.541Z,98773.19
2019-05-11T00:56:15.360Z,98780.95
2019-05-11T00:58:46.757Z,98775.94
2019-05-11T01:01:18.107Z,98778.06
2019-05-11T01:03:49.336Z,98775.78
2019-05-11T01:06:20.882Z,98777.34
2019-05-11T01:08:53.712Z,98773.45
2019-05-11T01:11:25.318Z,98775.72
2019-05-11T01:13:56.962Z,98772.14
2019-05-11T01:16:28.381Z,98785.25
2019-05-11T01:19:00.682Z,98672.18
2019-05-11T01:21:32.485Z,98775.44
2019-05-11T01:24:04.213Z,98783.00
2019-05-11T01:26:36.033Z,98781.80
2019-05-11T01:29:07.861Z,98785.11
2019-05-11T01:31:39.364Z,98784.30
2019-05-11T01:34:10.879Z,98781.20
2019-05-11T01:36:43.083Z,98786.45
2019-05-11T01:39:15.037Z,98779.98
2019-05-11T01:41:46.592Z,98780.42
2019-05-11T01:44:18.220Z,98773.93
2019-05-11T01:46:50.120Z,98775.63
2019-05-11T01:49:22.144Z,98771.97
2019-05-11T01:51:53.817Z,98763.37
2019-05-11T01:54:25.353Z,98762.52
2019-05-11T01:56:57.426Z,98755.34
2019-05-11T01:59:31.130Z,98754.97
2019-05-11T02:02:03.309Z,98767.81
2019-05-11T02:04:35.196Z,98763.01
2019-05-11T02:07:06.599Z,98760.02
2019-05-11T02:09:38.379Z,98765.44
2019-05-11T02:12:10.269Z,98767.79
2019-05-11T02:14:42.938Z,98764.47
2019-05-11T02:17:16.184Z,98767.97
2019-05-11T02:19:47.952Z,98766.82
2019-05-11T02:22:20.290Z,98757.05
2019-05-11T02:24:52.476Z,98751.55
2019-05-11T02:27:23.905Z,98733.77
2019-05-11T02:29:57.209Z,98742.84
2019-05-11T02:32:28.769Z,98749.99
2019-05-11T02:35:01.657Z,98760.60
2019-05-11T02:37:44.997Z,98750.52
2019-05-11T02:40:20.424Z,98752.83
2019-05-11T02:42:51.874Z,98742.08
2019-05-11T02:45:43.023Z,98748.97
2019-05-11T02:48:15.980Z,98755.63
2019-05-11T02:50:48.202Z,98749.83
2019-05-11T02:53:19.882Z,98745.32
2019-05-11T02:55:52.274Z,98746.06
2019-05-11T02:58:24.999Z,98741.82
2019-05-11T03:00:56.365Z,98754.34
2019-05-11T03:03:28.690Z,98762.53
2019-05-11T03:06:04.086Z,98757.88
2019-05-11T03:08:39.034Z,98757.64
2019-05-11T03:11:10.903Z,98758.63
2019-05-11T03:13:43.731Z,98765.92
2019-05-11T03:16:15.777Z,98758.61
2019-05-11T03:18:48.824Z,98757.63
2019-05-11T03:21:21.239Z,98764.41
2019-05-11T03:23:53.071Z,98763.84
2019-05-11T03:26:26.107Z,98766.36
2019-05-11T03:29:00.089Z,98772.30
2019-05-11T03:31:31.557Z,98779.58
2019-05-11T03:34:03.298Z,98779.86
2019-05-11T03:36:35.166Z,98778.95
2019-05-11T03:39:07.721Z,98781.28
2019-05-11T03:41:40.886Z,98784.70
2019-05-11T03:44:13.928Z,98776.78
2019-05-11T03:46:46.447Z,98772.33
2019-05-11T03:49:18.124Z,98767.50
2019-05-11T03:51:49.764Z,98764.61
2019-05-11T03:54:22.909Z,98762.03
2019-05-11T03:56:55.454Z,98771.12
2019-05-11T03:59:27.601Z,98772.20
2019-05-11T04:01:59.223Z,98766.55
2019-05-11T04:04:32.039Z,98760.97
2019-05-11T04:07:04.251Z,98765.69
2019-05-11T04:09:37.386Z,98770.94
2019-05-11T04:12:12.332Z,98770.73
2019-05-11T04:14:44.740Z,98772.06
2019-05-11T04:17:16.235Z,98764.19
2019-05-11T04:19:47.691Z,98758.06
2019-05-11T04:22:19.358Z,98751.72
2019-05-11T04:24:50.890Z,98743.40
2019-05-11T04:27:22.327Z,98749.31
2019-05-11T04:29:54.060Z,98757.22
2019-05-11T04:32:26.682Z,98749.23
2019-05-11T04:34:58.806Z,98749.31
2019-05-11T04:37:32.622Z,98757.05
2019-05-11T04:40:14.454Z,98760.89
2019-05-11T04:42:54.987Z,98760.28
2019-05-11T04:45:20.498Z,98750.64
2019-05-11T04:47:52.208Z,98752.58
2019-05-11T04:50:23.579Z,98746.78
2019-05-11T04:52:56.685Z,98756.95
2019-05-11T04:55:28.161Z,98757.13
2019-05-11T04:57:59.418Z,98757.48
2019-05-11T05:00:30.859Z,98761.02
2019-05-11T05:03:02.165Z,98765.81
2019-05-11T05:05:33.501Z,98761.30
2019-05-11T05:08:09.696Z,98752.79
2019-05-11T05:10:40.774Z,98756.26
2019-05-11T05:13:14.227Z,98753.97
2019-05-11T05:15:45.873Z,98757.05
2019-05-11T05:18:17.519Z,98752.52
2019-05-11T05:20:49.986Z,98748.30
2019-05-11T05:23:21.775Z,98740.50
2019-05-11T05:25:53.711Z,98756.31
2019-05-11T05:28:25.407Z,98763.80
2019-05-11T05:30:57.695Z,98764.06
2019-05-11T05:33:28.965Z,98764.11
2019-05-11T05:36:00.669Z,98766.83
2019-05-11T05:38:34.023Z,98758.75
2019-05-11T05:41:05.720Z,98757.64
2019-05-11T05:43:39.338Z,98751.63
2019-05-11T05:46:13.852Z,98746.58
2019-05-11T05:48:47.195Z,98739.30
2019-05-11T05:51:18.539Z,98737.94
2019-05-11T05:53:49.903Z,98734.34
2019-05-11T05:56:22.117Z,98736.83
2019-05-11T05:58:53.565Z,98714.48
2019-05-11T06:01:24.861Z,98742.69
2019-05-11T06:03:56.595Z,98744.41
2019-05-11T06:06:28.057Z,98754.50
2019-05-11T06:08:59.906Z,98749.98
2019-05-11T06:11:31.701Z,98747.59
2019-05-11T06:14:04.698Z,98742.24
2019-05-11T06:16:37.322Z,98725.67
2019-05-11T06:19:08.863Z,98726.70
2019-05-11T06:21:42.780Z,98720.05
2019-05-11T06:24:14.147Z,98721.93
2019-05-11T06:26:47.541Z,98723.71
2019-05-11T06:29:21.692Z,98731.37
2019-05-11T06:31:54.137Z,98730.16
2019-05-11T06:34:25.563Z,98654.55
2019-05-11T06:36:57.274Z,98720.64
2019-05-11T06:39:28.534Z,98724.68
2019-05-11T06:42:00.061Z,98721.54
2019-05-11T06:44:34.030Z,98708.45
2019-05-11T06:47:05.549Z,98706.29
2019-05-11T06:49:38.012Z,98710.25
2019-05-11T06:52:10.951Z,98712.12
2019-05-11T06:54:45.468Z,98712.06
2019-05-11T06:57:17.170Z,98714.65
2019-05-11T06:59:48.679Z,98714.42
2019-05-11T07:02:21.371Z,98714.31
2019-05-11T07:04:52.784Z,98713.66
2019-05-11T07:07:25.290Z,98710.78
2019-05-11T07:09:56.997Z,98709.94
2019-05-11T07:12:28.846Z,98712.83
2019-05-11T07:15:00.469Z,98713.33
2019-05-11T07:17:39.120Z,98707.48
2019-05-11T07:20:17.627Z,98684.86
2019-05-11T07:22:49.027Z,98699.41
2019-05-11T07:25:20.930Z,98695.66
2019-05-11T07:27:53.962Z,98697.45
2019-05-11T07:30:25.464Z,98692.98
2019-05-11T07:32:58.093Z,98684.90
2019-05-11T07:35:30.307Z,98678.34
2019-05-11T07:38:03.246Z,98678.88
2019-05-11T07:40:34.803Z,98671.33
2019-05-11T07:43:09.736Z,98677.75
2019-05-11T07:45:41.153Z,98671.72
2019-05-11T07:48:12.633Z,98666.28
2019-05-11T07:50:44.931Z,98663.52
2019-05-11T07:53:18.740Z,98665.57
2019-05-11T07:55:50.459Z,98663.02
2019-05-11T07:58:22.446Z,98667.50
2019-05-11T08:00:58.079Z,98669.91
2019-05-11T08:03:29.422Z,98665.56
2019-05-11T08:06:02.862Z,98672.95
2019-05-11T08:08:35.233Z,98669.96
2019-05-11T08:11:08.327Z,98663.42
2019-05-11T08:13:39.555Z,98655.97
2019-05-11T08:16:12.475Z,98648.47
2019-05-11T08:18:47.866Z,98646.59
2019-05-11T08:21:19.312Z,98646.34
2019-05-11T08:23:51.315Z,98647.55
2019-05-11T08:26:23.155Z,98661.61
2019-05-11T08:28:54.959Z,98662.31
2019-05-11T08:31:27.885Z,98657.08
2019-05-11T08:34:00.984Z,98658.50
2019-05-11T08:37:08.998Z,98656.92
2019-05-11T08:39:42.457Z,98663.60
2019-05-11T08:42:29.535Z,98662.34
2019-05-11T08:45:39.259Z,98658.90
2019-05-11T08:48:11.780Z,98655.68
2019-05-11T08:50:43.902Z,98655.59
2019-05-11T08:53:17.947Z,98644.44
2019-05-11T08:55:50.578Z,98653.84
2019-05-11T08:58:23.672Z,98644.86
2019-05-11T09:00:58.321Z,98647.11
2019-05-11T09:03:30.616Z,98636.98
2019-05-11T09:06:02.398Z,98626.20
2019-05-11T09:08:34.509Z,98634.16
2019-05-11T09:11:10.848Z,98628.13
2019-05-11T09:13:43.842Z,98631.13
2019-05-11T09:16:15.856Z,98621.64
2019-05-11T09:18:49.187Z,98619.92
2019-05-11T09:21:21.115Z,98619.61
2019-05-11T09:23:57.846Z,98621.49
2019-05-11T09:26:29.550Z,98621.25
2019-05-11T09:29:02.915Z,98624.41
2019-05-11T09:31:34.309Z,98620.67
2019-05-11T09:34:08.774Z,98517.34
2019-05-11T09:36:40.159Z,98612.15
2019-05-11T09:39:11.557Z,98619.19
2019-05-11T09:41:43.538Z,98618.04
2019-05-11T09:44:14.788Z,98615.27
2019-05-11T09:46:47.915Z,98614.83
2019-05-11T09:49:21.352Z,98598.48
2019-05-11T09:51:53.000Z,98594.61
2019-05-11T09:54:28.840Z,98599.50
2019-05-11T09:56:59.950Z,98596.05
2019-05-11T09:59:31.787Z,98600.61
2019-05-11T10:02:03.053Z,98587.83
2019-05-11T10:04:34.518Z,98588.12
2019-05-11T10:07:09.046Z,98584.55
2019-05-11T10:09:41.729Z,98588.27
2019-05-11T10:12:13.158Z,98591.26
2019-05-11T10:14:45.172Z,98595.41
2019-05-11T10:17:18.782Z,98569.47
2019-05-11T10:19:51.969Z,98585.69
2019-05-11T10:22:23.466Z,98578.30
2019-05-11T10:24:55.082Z,98583.30
2019-05-11T10:27:28.030Z,98586.33
2019-05-11T10:30:00.334Z,98581.00
2019-05-11T10:32:43.247Z,98582.05
2019-05-11T10:35:20.716Z,98579.84
2019-05-11T10:37:52.588Z,98509.00
2019-05-11T10:40:23.957Z,98591.77
2019-05-11T10:42:55.951Z,98587.91
2019-05-11T10:45:28.539Z,98595.64
2019-05-11T10:48:01.202Z,98591.61
2019-05-11T10:50:38.105Z,98598.14
2019-05-11T10:53:11.933Z,98605.45
2019-05-11T10:55:43.297Z,98605.20
2019-05-11T10:58:15.209Z,98611.76
2019-05-11T11:00:48.040Z,98612.64
2019-05-11T11:03:19.952Z,98613.71
2019-05-11T11:05:51.485Z,98615.17
2019-05-11T11:08:22.898Z,98614.14
2019-05-11T11:10:54.911Z,98609.02
2019-05-11T11:13:28.129Z,98611.03
2019-05-11T11:16:02.116Z,98606.92
2019-05-11T11:18:33.546Z,98613.73
2019-05-11T11:21:05.140Z,98594.87
2019-05-11T11:23:38.593Z,98581.37
2019-05-11T11:26:10.244Z,98584.53
2019-05-11T11:28:42.255Z,98585.30
2019-05-11T11:31:14.061Z,98578.02
2019-05-11T11:33:45.761Z,98569.16
2019-05-11T11:36:17.923Z,98573.53
2019-05-11T11:38:49.876Z,98571.30
2019-05-11T11:41:21.646Z,98571.53
2019-05-11T11:43:54.098Z,98571.97
2019-05-11T11:46:27.413Z,98577.72
2019-05-11T11:48:58.414Z,98579.64
2019-05-11T11:51:34.717Z,98580.88
2019-05-11T11:54:08.693Z,98594.24
2019-05-11T11:56:42.155Z,98594.08
2019-05-11T11:59:14.339Z,98595.62
2019-05-11T12:01:45.775Z,98601.59
2019-05-11T12:04:18.774Z,98595.75
2019-05-11T12:06:50.695Z,98591.48
2019-05-11T12:09:22.344Z,98601.31
2019-05-11T12:11:53.713Z,98592.25
2019-05-11T12:14:28.281Z,98590.04
2019-05-11T12:17:10.868Z,98595.09
2019-05-11T12:19:40.007Z,98595.77
2019-05-11T12:22:12.914Z,98587.53
2019-05-11T12:24:44.168Z,98586.47
2019-05-11T12:27:18.289Z,98586.39
2019-05-11T12:29:49.359Z,98585.84
2019-05-11T12:32:27.633Z,98583.93
2019-05-11T12:34:59.216Z,98580.11
2019-05-11T12:37:30.631Z,98575.56
2019-05-11T12:40:02.132Z,98579.12
2019-05-11T12:42:44.718Z,98574.73
2019-05-11T12:45:18.178Z,98578.30
2019-05-11T12:47:49.615Z,98574.14
2019-05-11T12:50:21.320Z,98579.91
2019-05-11T12:52:52.721Z,98575.77
2019-05-11T12:55:23.927Z,98577.48
2019-05-11T12:57:55.248Z,98572.36
2019-05-11T13:00:31.084Z,98569.05
2019-05-11T13:03:00.739Z,98567.16
2019-05-11T13:05:32.737Z,98568.05
2019-05-11T13:08:07.892Z,98565.97
2019-05-11T13:10:38.878Z,98566.13
2019-05-11T13:13:10.246Z,98561.77
2019-05-11T13:15:41.516Z,98570.77
2019-05-11T13:18:14.376Z,98574.17
2019-05-11T13:20:48.290Z,98565.81
2019-05-11T13:23:20.082Z,98580.97
2019-05-11T13:25:53.614Z,98557.48
2019-05-11T13:28:28.455Z,98564.74
2019-05-11T13:31:00.165Z,98563.92
2019-05-11T13:33:31.480Z,98534.79
2019-05-11T13:36:02.979Z,98553.24
2019-05-11T13:38:34.345Z,98547.00
2019-05-11T13:41:07.830Z,98549.16
2019-05-11T13:43:40.828Z,98548.98
2019-05-11T13:46:13.223Z,98545.56
2019-05-11T13:48:44.834Z,98542.06
2019-05-11T13:51:18.263Z,98530.11
2019-05-11T13:53:49.573Z,98536.89
2019-05-11T13:56:21.164Z,98548.25
2019-05-11T13:58:52.818Z,98539.88
2019-05-11T14:01:24.197Z,98544.33
2019-05-11T14:03:58.371Z,98536.23
2019-05-11T14:06:29.932Z,98539.69
2019-05-11T14:09:02.013Z,98539.97
2019-05-11T14:11:35.087Z,98537.63
2019-05-11T14:14:07.721Z,98531.64
2019-05-11T14:16:39.489Z,98526.89
2019-05-11T14:19:12.515Z,98526.17
2019-05-11T14:21:45.715Z,98524.34
2019-05-11T14:24:18.511Z,98527.49
2019-05-11T14:26:51.532Z,98528.02
2019-05-11T14:29:23.120Z,98526.28
2019-05-11T14:31:55.254Z,98526.66
2019-05-11T14:34:28.432Z,98535.23
2019-05-11T14:36:59.913Z,98541.06
2019-05-11T14:39:31.430Z,98537.75
2019-05-11T14:42:02.944Z,98538.45
2019-05-11T14:44:34.275Z,98542.12
2019-05-11T14:47:05.557Z,98535.09
2019-05-11T14:49:37.889Z,98543.02
2019-05-11T14:52:10.083Z,98540.53
2019-05-11T14:54:42.459Z,98542.98
2019-05-11T14:57:15.249Z,98543.28
2019-05-11T14:59:48.261Z,98535.95
2019-05-11T15:02:39.945Z,98544.84
2019-05-11T15:05:20.580Z,98546.98
2019-05-11T15:07:53.073Z,98538.64
2019-05-11T15:10:24.732Z,98535.25
2019-05-11T15:12:59.149Z,98540.70
2019-05-11T15:15:30.687Z,98534.06
2019-05-11T15:18:02.148Z,98538.68
2019-05-11T15:20:33.684Z,98538.97
2019-05-11T15:23:08.596Z,98533.12
2019-05-11T15:25:39.749Z,98539.84
2019-05-11T15:28:13.024Z,98543.83
2019-05-11T15:30:50.586Z,98529.73
2019-05-11T15:33:27.895Z,98527.81
2019-05-11T15:36:00.479Z,98397.97
2019-05-11T15:38:37.712Z,98538.70
2019-05-11T15:41:14.901Z,98532.42
2019-05-11T15:43:48.084Z,98535.29
2019-05-11T15:46:22.669Z,98528.26
2019-05-11T15:49:02.961Z,98519.65
2019-05-11T15:51:33.118Z,98516.36
2019-05-11T15:54:08.037Z,98516.90
2019-05-11T15:56:42.094Z,98505.97
2019-05-11T15:59:14.483Z,98508.38
2019-05-11T16:01:48.897Z,98516.75
2019-05-11T16:04:23.816Z,98516.88
2019-05-11T16:07:00.101Z,98526.88
2019-05-11T16:09:34.265Z,98519.61
2019-05-11T16:12:10.958Z,98510.30
2019-05-11T16:14:48.574Z,98515.05
2019-05-11T16:17:20.974Z,98509.50
2019-05-11T16:19:52.812Z,98506.63
2019-05-11T16:22:28.937Z,98515.72
2019-05-11T16:25:13.213Z,98506.58
2019-05-11T16:27:45.140Z,98503.38
2019-05-11T16:30:21.766Z,98508.23
2019-05-11T16:32:52.452Z,98508.81
2019-05-11T16:35:28.110Z,98504.02
2019-05-11T16:38:04.025Z,98495.58
2019-05-11T16:40:39.933Z,98498.57
2019-05-11T16:43:12.722Z,98490.84
2019-05-11T16:45:45.730Z,98493.20
2019-05-11T16:48:20.397Z,98494.80
2019-05-11T16:50:52.640Z,98504.31
2019-05-11T16:53:28.491Z,98512.63
2019-05-11T16:56:00.435Z,98505.58
2019-05-11T16:58:38.069Z,98509.64
2019-05-11T17:01:11.348Z,98501.36
2019-05-11T17:03:45.196Z,98496.53
2019-05-11T17:06:20.954Z,98495.61
2019-05-11T17:08:54.117Z,98500.36
2019-05-11T17:11:29.019Z,98499.85
2019-05-11T17:14:02.278Z,98500.64
2019-05-11T17:16:38.597Z,98499.55
2019-05-11T17:19:12.533Z,98507.29
2019-05-11T17:21:45.564Z,98507.86
2019-05-11T17:24:19.371Z,98507.30
2019-05-11T17:26:52.543Z,98502.26
2019-05-11T17:29:24.511Z,98502.15
2019-05-11T17:31:58.056Z,98511.14
2019-05-11T17:34:33.116Z,98514.37
2019-05-11T17:37:08.874Z,98516.67
2019-05-11T17:39:41.707Z,98519.62
2019-05-11T17:42:15.142Z,98522.13
2019-05-11T17:44:48.662Z,98522.70
2019-05-11T17:47:23.813Z,98535.17
2019-05-11T17:50:03.255Z,98538.69
2019-05-11T17:52:41.254Z,98560.98
2019-05-11T17:55:19.948Z,98581.95
2019-05-11T17:58:08.694Z,98593.41
2019-05-11T18:00:47.902Z,98614.83
2019-05-11T18:03:22.950Z,98615.22
2019-05-11T18:05:58.984Z,98628.66
2019-05-11T18:08:35.233Z,98639.66
2019-05-11T18:11:29.811Z,98662.59
2019-05-11T18:14:01.477Z,98675.73
2019-05-11T18:16:35.850Z,98700.70
2019-05-11T18:19:08.820Z,98698.64
2019-05-11T18:21:40.886Z,98684.91
2019-05-11T18:24:14.911Z,98695.55
2019-05-11T18:26:48.727Z,98700.69
2019-05-11T18:29:20.886Z,98720.79
2019-05-11T18:31:54.405Z,98695.86
2019-05-11T18:34:28.380Z,98691.59
2019-05-11T18:37:03.628Z,98686.83
2019-05-11T18:39:34.894Z,98699.20
2019-05-11T18:42:09.764Z,98727.97
2019-05-11T18:44:43.911Z,98722.78
2019-05-11T18:47:18.306Z,98713.45
2019-05-11T18:49:55.997Z,98718.07
2019-05-11T18:52:29.624Z,98722.31
2019-05-11T18:55:02.499Z,98738.55
2019-05-11T18:57:48.727Z,98711.14
2019-05-11T19:00:21.351Z,98747.98
2019-05-11T19:02:52.999Z,98766.91
2019-05-11T19:05:30.515Z,98776.36
2019-05-11T19:08:03.864Z,98772.84
2019-05-11T19:10:52.632Z,98735.76
2019-05-11T19:13:28.093Z,98759.79
2019-05-11T19:16:03.752Z,98777.25
2019-05-11T19:18:38.790Z,98776.16
2019-05-11T19:21:12.232Z,98786.60
2019-05-11T19:23:44.259Z,98776.05
2019-05-11T19:26:17.811Z,98774.98
2019-05-11T19:28:49.766Z,98753.16
2019-05-11T19:31:24.134Z,98753.69
2019-05-11T19:33:58.153Z,98737.16
2019-05-11T19:36:33.203Z,98722.06
2019-05-11T19:39:09.200Z,98746.08
2019-05-11T19:41:43.250Z,98739.64
2019-05-11T19:44:18.686Z,98729.03
2019-05-11T19:47:01.931Z,98757.86
2019-05-11T19:49:34.081Z,98750.52
2019-05-11T19:52:08.606Z,98756.31
2019-05-11T19:54:42.531Z,98755.41
2019-05-11T19:57:17.724Z,98793.75
2019-05-11T19:59:48.728Z,98764.77
2019-05-11T20:02:23.621Z,98734.16
2019-05-11T20:04:58.558Z,98767.51
2019-05-11T20:07:41.346Z,98771.71
2019-05-11T20:10:18.830Z,98783.41
2019-05-11T20:12:51.578Z,98814.38
2019-05-11T20:15:29.842Z,98791.70
2019-05-11T20:18:03.818Z,98796.59
2019-05-11T20:20:35.020Z,98815.72
2019-05-11T20:23:07.937Z,98832.97
2019-05-11T20:25:39.817Z,98853.26
2019-05-11T20:28:18.596Z,98850.00
2019-05-11T20:30:52.751Z,98863.16
2019-05-11T20:33:27.816Z,98869.67
2019-05-11T20:35:59.240Z,98865.87
2019-05-11T20:38:34.096Z,98886.47
2019-05-11T20:41:11.279Z,98883.29
2019-05-11T20:43:42.534Z,98893.16
2019-05-11T20:46:14.591Z,98871.06
2019-05-11T20:48:48.537Z,98884.22
2019-05-11T20:51:35.833Z,98891.50
2019-05-11T20:54:01.314Z,98902.34
2019-05-11T20:56:48.484Z,98889.41
2019-05-11T20:59:24.038Z,98885.47
2019-05-11T21:02:03.130Z,98897.13
2019-05-11T21:04:38.806Z,98891.17
2019-05-11T21:07:10.417Z,98901.50
2019-05-11T21:09:44.401Z,98908.22
2019-05-11T21:12:19.205Z,98907.83
2019-05-11T21:14:52.207Z,98913.30
2019-05-11T21:17:27.881Z,98918.81
2019-05-11T21:20:13.420Z,98911.91
2019-05-11T21:22:48.708Z,98915.08
2019-05-11T21:25:21.553Z,98913.28
2019-05-11T21:27:58.601Z,98917.52
2019-05-11T21:30:50.258Z,98907.99
2019-05-11T21:33:39.063Z,98911.75
2019-05-11T21:36:30.253Z,98902.16
2019-05-11T21:39:11.865Z,98913.91
2019-05-11T21:41:47.855Z,98896.97
2019-05-11T21:44:23.173Z,98899.83
2019-05-11T21:46:59.032Z,98903.91
2019-05-11T21:49:38.769Z,98907.34
2019-05-11T21:52:29.265Z,98906.85
2019-05-11T21:55:16.760Z,98899.28
2019-05-11T21:58:04.516Z,98900.84
2019-05-11T22:00:51.966Z,98903.48
2019-05-11T22:03:35.126Z,98892.70
2019-05-11T22:06:24.648Z,98894.39
2019-05-11T22:09:24.235Z,98887.02
2019-05-11T22:12:10.905Z,98895.39
2019-05-11T22:14:48.895Z,98898.34
2019-05-11T22:17:22.437Z,98900.67
2019-05-11T22:19:58.522Z,98893.16
2019-05-11T22:22:53.651Z,98897.35
2019-05-11T22:25:29.952Z,98901.38
2019-05-11T22:28:01.737Z,98912.45
2019-05-11T22:30:35.834Z,98903.95
2019-05-11T22:33:09.089Z,98918.25
2019-05-11T22:35:40.371Z,98913.66
2019-05-11T22:38:15.607Z,98720.30
2019-05-11T22:40:49.835Z,98928.04
2019-05-11T22:43:24.351Z,98935.80
2019-05-11T22:45:59.670Z,98929.16
2019-05-11T22:48:31.101Z,98937.39
2019-05-11T22:51:07.851Z,98937.00
2019-05-11T22:53:47.061Z,98938.30
2019-05-11T22:56:17.576Z,98940.53
2019-05-11T22:58:51.968Z,98935.17
2019-05-11T23:01:28.243Z,98943.83
2019-05-11T23:04:00.405Z,98794.59
2019-05-11T23:06:32.313Z,98951.63
2019-05-11T23:09:07.901Z,98953.95
2019-05-11T23:11:43.920Z,98953.97
2019-05-11T23:14:17.709Z,98966.57
2019-05-11T23:16:52.247Z,98963.69
2019-05-11T23:19:28.004Z,98956.77
2019-05-11T23:22:05.466Z,98961.75
2019-05-11T23:24:37.817Z,98957.14
2019-05-11T23:27:11.271Z,98951.97
2019-05-11T23:29:43.631Z,98949.77
2019-05-11T23:32:18.000Z,98917.63
2019-05-11T23:34:52.182Z,98940.41
2019-05-11T23:37:24.570Z,98934.03
2019-05-11T23:39:58.473Z,98923.05
2019-05-11T23:42:40.007Z,98925.97
2019-05-11T23:45:19.277Z,98917.62
2019-05-11T23:47:51.266Z,98913.59
2019-05-11T23:50:28.226Z,98917.79
2019-05-11T23:53:06.344Z,98904.31
2019-05-11T23:55:38.864Z,98905.08
2019-05-11T23:58:11.315Z,98912.11
